AMZ weather

Ardmore Airport
Manurewa, Auckland Region, New Zealand

Public forecast

Using degrees Celsius for public forecast. Weather courtesy of forecast.io.

Closest aviation weather report (METAR) to Ardmore Airport

Closest report is Auckland International Airport, 8.8 nm (16.2 km) W. Retrieved 2019/12/13 04:30 UTC (16 minutes ago):

NZAA 130430Z AUTO 24008KT 210V280 9999 FEW030/// 21/14 Q1008 NOSIG

Closest aviation forecast (TAF) to Ardmore Airport

Closest forecast is Auckland International Airport, 8.8 nm (16.2 km) W. Retrieved 2019-12-13 00:14 UTC (5 hours ago):

TAF NZAA 122310Z 1300/1400 25015KT 9999 SCT030 BECMG 1308/1310 31005KT FM131700 03010KT 9999 -RA FEW015 BKN020 TEMPO 1318/1322 7000 RA BKN014 PROB30 TEMPO 1318/1321 4000 RA BKN008 FEW020CB BECMG 1319/1321 25010KT